sensor_id;sensor_type;location;lat;lon;timestamp;pressure;altitude;pressure_sealevel;temperature;humidity
21109;BME280;10712;52.944;9.098;2023-11-19T00:00:45;100677.91;;;14.68;77.50
21109;BME280;10712;52.944;9.098;2023-11-19T00:03:11;100663.53;;;14.69;77.64
21109;BME280;10712;52.944;9.098;2023-11-19T00:05:39;100654.28;;;14.73;77.58
21109;BME280;10712;52.944;9.098;2023-11-19T00:08:05;100656.25;;;14.71;77.58
21109;BME280;10712;52.944;9.098;2023-11-19T00:10:32;100668.44;;;14.75;77.56
21109;BME280;10712;52.944;9.098;2023-11-19T00:12:57;100661.34;;;14.74;77.75
21109;BME280;10712;52.944;9.098;2023-11-19T00:15:23;100656.38;;;14.81;77.79
21109;BME280;10712;52.944;9.098;2023-11-19T00:17:50;100652.97;;;14.79;77.80
21109;BME280;10712;52.944;9.098;2023-11-19T00:20:18;100633.09;;;14.81;77.74
21109;BME280;10712;52.944;9.098;2023-11-19T00:22:44;100625.03;;;14.81;77.76
21109;BME280;10712;52.944;9.098;2023-11-19T00:25:14;100610.56;;;14.84;77.82
21109;BME280;10712;52.944;9.098;2023-11-19T00:27:40;100610.19;;;14.88;77.88
21109;BME280;10712;52.944;9.098;2023-11-19T00:30:07;100609.22;;;14.89;77.94
21109;BME280;10712;52.944;9.098;2023-11-19T00:32:33;100614.84;;;14.86;77.94
21109;BME280;10712;52.944;9.098;2023-11-19T00:35:00;100618.97;;;14.90;77.87
21109;BME280;10712;52.944;9.098;2023-11-19T00:37:26;100610.81;;;14.92;77.90
21109;BME280;10712;52.944;9.098;2023-11-19T00:39:52;100606.03;;;14.95;77.79
21109;BME280;10712;52.944;9.098;2023-11-19T00:42:18;100594.34;;;14.96;77.94
21109;BME280;10712;52.944;9.098;2023-11-19T00:44:44;100592.63;;;14.95;77.93
21109;BME280;10712;52.944;9.098;2023-11-19T00:47:11;100596.81;;;15.00;77.90
21109;BME280;10712;52.944;9.098;2023-11-19T00:49:37;100593.84;;;15.03;77.89
21109;BME280;10712;52.944;9.098;2023-11-19T00:52:03;100588.50;;;15.03;77.82
21109;BME280;10712;52.944;9.098;2023-11-19T00:54:29;100593.13;;;15.01;78.05
21109;BME280;10712;52.944;9.098;2023-11-19T00:56:55;100582.16;;;15.04;78.07
21109;BME280;10712;52.944;9.098;2023-11-19T00:59:21;100569.72;;;15.03;78.07
21109;BME280;10712;52.944;9.098;2023-11-19T01:01:47;100564.13;;;15.06;78.10
21109;BME280;10712;52.944;9.098;2023-11-19T01:04:23;100552.03;;;15.11;77.92
21109;BME280;10712;52.944;9.098;2023-11-19T01:06:50;100538.75;;;15.10;78.01
21109;BME280;10712;52.944;9.098;2023-11-19T01:09:16;100538.75;;;15.10;78.15
21109;BME280;10712;52.944;9.098;2023-11-19T01:11:41;100529.94;;;15.08;78.24
21109;BME280;10712;52.944;9.098;2023-11-19T01:14:07;100527.16;;;15.09;78.22
21109;BME280;10712;52.944;9.098;2023-11-19T01:16:33;100524.97;;;15.14;78.09
21109;BME280;10712;52.944;9.098;2023-11-19T01:18:59;100514.25;;;15.14;78.01
21109;BME280;10712;52.944;9.098;2023-11-19T01:21:31;100515.56;;;15.09;78.48
21109;BME280;10712;52.944;9.098;2023-11-19T01:23:58;100522.41;;;15.13;78.24
21109;BME280;10712;52.944;9.098;2023-11-19T01:26:25;100511.41;;;15.16;78.33
21109;BME280;10712;52.944;9.098;2023-11-19T01:28:51;100512.88;;;15.20;78.25
21109;BME280;10712;52.944;9.098;2023-11-19T01:31:18;100510.91;;;15.22;78.28
21109;BME280;10712;52.944;9.098;2023-11-19T01:33:45;100498.22;;;15.24;78.20
21109;BME280;10712;52.944;9.098;2023-11-19T01:36:15;100495.44;;;15.25;78.35
21109;BME280;10712;52.944;9.098;2023-11-19T01:38:41;100504.22;;;15.27;78.21
21109;BME280;10712;52.944;9.098;2023-11-19T01:41:07;100501.66;;;15.26;78.44
21109;BME280;10712;52.944;9.098;2023-11-19T01:43:36;100491.75;;;15.26;78.43
21109;BME280;10712;52.944;9.098;2023-11-19T01:46:05;100496.00;;;15.29;78.39
21109;BME280;10712;52.944;9.098;2023-11-19T01:48:34;100499.44;;;15.31;78.34
21109;BME280;10712;52.944;9.098;2023-11-19T01:51:06;100491.84;;;15.36;78.38
21109;BME280;10712;52.944;9.098;2023-11-19T01:53:36;100490.16;;;15.35;78.63
21109;BME280;10712;52.944;9.098;2023-11-19T01:56:07;100480.03;;;15.38;78.46
21109;BME280;10712;52.944;9.098;2023-11-19T01:58:39;100477.22;;;15.40;78.49
21109;BME280;10712;52.944;9.098;2023-11-19T02:01:06;100464.50;;;15.42;78.57
21109;BME280;10712;52.944;9.098;2023-11-19T02:03:34;100466.94;;;15.45;78.63
21109;BME280;10712;52.944;9.098;2023-11-19T02:06:00;100469.38;;;15.48;78.60
21109;BME280;10712;52.944;9.098;2023-11-19T02:08:26;100471.06;;;15.49;78.60
21109;BME280;10712;52.944;9.098;2023-11-19T02:10:53;100462.75;;;15.52;78.62
21109;BME280;10712;52.944;9.098;2023-11-19T02:13:22;100459.03;;;15.55;78.68
21109;BME280;10712;52.944;9.098;2023-11-19T02:15:48;100433.72;;;15.57;78.68
21109;BME280;10712;52.944;9.098;2023-11-19T02:18:26;100420.28;;;15.57;78.69
21109;BME280;10712;52.944;9.098;2023-11-19T02:20:55;100415.66;;;15.59;78.67
21109;BME280;10712;52.944;9.098;2023-11-19T02:23:21;100411.03;;;15.61;78.68
21109;BME280;10712;52.944;9.098;2023-11-19T02:28:59;100417.56;;;15.68;78.75
21109;BME280;10712;52.944;9.098;2023-11-19T02:31:25;100400.94;;;15.74;78.89
21109;BME280;10712;52.944;9.098;2023-11-19T02:33:53;100405.50;;;15.84;78.76
21109;BME280;10712;52.944;9.098;2023-11-19T02:36:18;100389.88;;;15.89;78.90
21109;BME280;10712;52.944;9.098;2023-11-19T02:38:44;100390.88;;;15.97;79.10
21109;BME280;10712;52.944;9.098;2023-11-19T02:41:10;100385.88;;;16.04;79.09
21109;BME280;10712;52.944;9.098;2023-11-19T02:43:37;100390.69;;;16.10;79.16
21109;BME280;10712;52.944;9.098;2023-11-19T02:46:04;100387.19;;;16.19;79.15
21109;BME280;10712;52.944;9.098;2023-11-19T02:48:35;100397.16;;;16.28;79.23
21109;BME280;10712;52.944;9.098;2023-11-19T02:51:02;100385.84;;;16.34;79.45
21109;BME280;10712;52.944;9.098;2023-11-19T02:53:35;100391.41;;;16.42;79.63
21109;BME280;10712;52.944;9.098;2023-11-19T02:56:03;100371.94;;;16.60;79.68
21109;BME280;10712;52.944;9.098;2023-11-19T02:58:46;100360.69;;;16.66;79.80
21109;BME280;10712;52.944;9.098;2023-11-19T03:01:12;100353.03;;;16.71;80.06
21109;BME280;10712;52.944;9.098;2023-11-19T03:03:49;100350.53;;;16.79;80.16
21109;BME280;10712;52.944;9.098;2023-11-19T03:06:20;100346.00;;;16.99;80.73
21109;BME280;10712;52.944;9.098;2023-11-19T03:08:47;100343.47;;;17.07;80.47
21109;BME280;10712;52.944;9.098;2023-11-19T03:11:14;100339.50;;;17.11;80.67
21109;BME280;10712;52.944;9.098;2023-11-19T03:13:40;100340.19;;;17.22;80.66
21109;BME280;10712;52.944;9.098;2023-11-19T03:16:07;100335.25;;;17.27;80.70
21109;BME280;10712;52.944;9.098;2023-11-19T03:18:33;100338.06;;;17.36;80.86
21109;BME280;10712;52.944;9.098;2023-11-19T03:20:59;100332.13;;;17.42;80.83
21109;BME280;10712;52.944;9.098;2023-11-19T03:23:25;100340.91;;;17.44;81.22
21109;BME280;10712;52.944;9.098;2023-11-19T03:25:54;100343.47;;;17.55;81.13
21109;BME280;10712;52.944;9.098;2023-11-19T03:28:21;100337.09;;;17.56;81.35
21109;BME280;10712;52.944;9.098;2023-11-19T03:30:47;100325.59;;;17.73;81.15
21109;BME280;10712;52.944;9.098;2023-11-19T03:33:12;100341.47;;;17.76;81.35
21109;BME280;10712;52.944;9.098;2023-11-19T03:35:38;100345.84;;;17.77;81.40
21109;BME280;10712;52.944;9.098;2023-11-19T03:38:06;100343.47;;;17.74;81.54
21109;BME280;10712;52.944;9.098;2023-11-19T03:40:32;100328.41;;;17.81;81.38
21109;BME280;10712;52.944;9.098;2023-11-19T03:42:58;100336.94;;;17.77;81.77
21109;BME280;10712;52.944;9.098;2023-11-19T03:45:24;100342.00;;;17.89;81.78
21109;BME280;10712;52.944;9.098;2023-11-19T03:47:51;100335.91;;;17.87;81.65
21109;BME280;10712;52.944;9.098;2023-11-19T03:50:17;100334.31;;;17.94;81.79
21109;BME280;10712;52.944;9.098;2023-11-19T03:52:46;100331.75;;;18.02;81.82
21109;BME280;10712;52.944;9.098;2023-11-19T03:55:12;100322.09;;;18.09;81.97
21109;BME280;10712;52.944;9.098;2023-11-19T03:57:39;100309.88;;;18.05;81.93
21109;BME280;10712;52.944;9.098;2023-11-19T04:00:06;100314.28;;;18.06;82.08
21109;BME280;10712;52.944;9.098;2023-11-19T04:02:40;100308.59;;;18.09;82.09
21109;BME280;10712;52.944;9.098;2023-11-19T04:05:07;100314.09;;;18.18;81.97
21109;BME280;10712;52.944;9.098;2023-11-19T04:07:33;100313.41;;;18.16;82.21
21109;BME280;10712;52.944;9.098;2023-11-19T04:09:59;100310.97;;;18.22;82.25
21109;BME280;10712;52.944;9.098;2023-11-19T04:12:25;100316.88;;;18.26;82.14
21109;BME280;10712;52.944;9.098;2023-11-19T04:14:51;100322.00;;;18.29;82.18
21109;BME280;10712;52.944;9.098;2023-11-19T04:17:18;100315.81;;;18.46;81.78
21109;BME280;10712;52.944;9.098;2023-11-19T04:19:44;100316.38;;;18.40;82.40
21109;BME280;10712;52.944;9.098;2023-11-19T04:22:10;100314.25;;;18.43;82.29
21109;BME280;10712;52.944;9.098;2023-11-19T04:24:36;100323.06;;;18.45;82.52
21109;BME280;10712;52.944;9.098;2023-11-19T04:27:05;100324.72;;;18.46;82.67
21109;BME280;10712;52.944;9.098;2023-11-19T04:29:32;100323.06;;;18.45;82.66
21109;BME280;10712;52.944;9.098;2023-11-19T04:31:58;100324.72;;;18.56;82.34
21109;BME280;10712;52.944;9.098;2023-11-19T04:34:24;100316.91;;;18.53;82.67
21109;BME280;10712;52.944;9.098;2023-11-19T04:36:51;100316.22;;;18.51;82.74
21109;BME280;10712;52.944;9.098;2023-11-19T04:39:17;100314.22;;;18.53;82.63
21109;BME280;10712;52.944;9.098;2023-11-19T04:41:49;100305.41;;;18.51;82.65
21109;BME280;10712;52.944;9.098;2023-11-19T04:44:16;100311.09;;;18.58;82.57
21109;BME280;10712;52.944;9.098;2023-11-19T04:46:42;100301.16;;;18.58;82.85
21109;BME280;10712;52.944;9.098;2023-11-19T04:49:10;100301.81;;;18.60;82.70
21109;BME280;10712;52.944;9.098;2023-11-19T04:51:44;100291.22;;;18.76;82.34
21109;BME280;10712;52.944;9.098;2023-11-19T04:54:13;100276.41;;;18.63;82.77
21109;BME280;10712;52.944;9.098;2023-11-19T04:56:39;100282.34;;;18.66;82.93
21109;BME280;10712;52.944;9.098;2023-11-19T04:59:06;100281.97;;;18.79;82.62
21109;BME280;10712;52.944;9.098;2023-11-19T05:01:33;100281.84;;;18.80;82.70
21109;BME280;10712;52.944;9.098;2023-11-19T05:03:59;100283.69;;;18.80;82.85
21109;BME280;10712;52.944;9.098;2023-11-19T05:06:31;100273.41;;;18.83;82.68
21109;BME280;10712;52.944;9.098;2023-11-19T05:08:59;100273.75;;;18.80;82.97
21109;BME280;10712;52.944;9.098;2023-11-19T05:11:27;100270.41;;;18.86;82.85
21109;BME280;10712;52.944;9.098;2023-11-19T05:13:54;100271.72;;;18.82;82.94
21109;BME280;10712;52.944;9.098;2023-11-19T05:16:20;100273.41;;;18.83;83.00
21109;BME280;10712;52.944;9.098;2023-11-19T05:18:47;100267.38;;;18.89;82.82
21109;BME280;10712;52.944;9.098;2023-11-19T05:21:13;100271.78;;;18.91;83.15
21109;BME280;10712;52.944;9.098;2023-11-19T05:23:39;100264.03;;;18.87;83.19
21109;BME280;10712;52.944;9.098;2023-11-19T05:26:05;100277.53;;;18.87;83.17
21109;BME280;10712;52.944;9.098;2023-11-19T05:28:31;100272.16;;;18.96;82.67
21109;BME280;10712;52.944;9.098;2023-11-19T05:30:57;100269.88;;;19.01;82.91
21109;BME280;10712;52.944;9.098;2023-11-19T05:33:23;100270.03;;;18.99;82.95
21109;BME280;10712;52.944;9.098;2023-11-19T05:35:49;100274.72;;;18.97;83.01
21109;BME280;10712;52.944;9.098;2023-11-19T05:38:16;100276.34;;;19.08;83.02
21109;BME280;10712;52.944;9.098;2023-11-19T05:40:41;100275.19;;;19.10;83.04
21109;BME280;10712;52.944;9.098;2023-11-19T05:43:07;100282.59;;;19.08;82.75
21109;BME280;10712;52.944;9.098;2023-11-19T05:45:33;100283.97;;;19.12;82.73
21109;BME280;10712;52.944;9.098;2023-11-19T05:47:59;100288.53;;;19.12;82.85
21109;BME280;10712;52.944;9.098;2023-11-19T05:50:25;100275.94;;;19.20;82.91
21109;BME280;10712;52.944;9.098;2023-11-19T05:52:50;100287.28;;;19.24;82.67
21109;BME280;10712;52.944;9.098;2023-11-19T05:55:18;100278.84;;;19.45;82.18
21109;BME280;10712;52.944;9.098;2023-11-19T05:57:45;100279.31;;;19.40;82.54
21109;BME280;10712;52.944;9.098;2023-11-19T06:00:11;100282.56;;;19.26;82.75
21109;BME280;10712;52.944;9.098;2023-11-19T06:02:39;100284.72;;;19.40;82.65
21109;BME280;10712;52.944;9.098;2023-11-19T06:05:05;100288.41;;;19.39;82.69
21109;BME280;10712;52.944;9.098;2023-11-19T06:07:34;100290.97;;;19.41;82.41
21109;BME280;10712;52.944;9.098;2023-11-19T06:10:02;100294.19;;;19.44;82.40
21109;BME280;10712;52.944;9.098;2023-11-19T06:12:35;100285.72;;;19.39;82.35
21109;BME280;10712;52.944;9.098;2023-11-19T06:15:08;100293.13;;;19.37;82.43
21109;BME280;10712;52.944;9.098;2023-11-19T06:17:34;100294.13;;;19.36;82.52
21109;BME280;10712;52.944;9.098;2023-11-19T06:20:00;100300.34;;;19.28;82.71
21109;BME280;10712;52.944;9.098;2023-11-19T06:22:26;100301.84;;;19.31;82.64
21109;BME280;10712;52.944;9.098;2023-11-19T06:24:52;100295.16;;;19.35;82.54
21109;BME280;10712;52.944;9.098;2023-11-19T06:27:17;100296.38;;;19.23;82.71
21109;BME280;10712;52.944;9.098;2023-11-19T06:29:43;100293.09;;;19.29;82.51
21109;BME280;10712;52.944;9.098;2023-11-19T06:32:09;100294.75;;;19.30;82.26
21109;BME280;10712;52.944;9.098;2023-11-19T06:34:35;100298.31;;;19.31;82.35
21109;BME280;10712;52.944;9.098;2023-11-19T06:37:01;100298.53;;;19.37;81.93
21109;BME280;10712;52.944;9.098;2023-11-19T06:39:30;100286.97;;;19.27;82.33
21109;BME280;10712;52.944;9.098;2023-11-19T06:41:55;100295.44;;;19.32;81.98
21109;BME280;10712;52.944;9.098;2023-11-19T06:44:22;100295.44;;;19.32;81.75
21109;BME280;10712;52.944;9.098;2023-11-19T06:46:48;100307.63;;;19.36;81.38
21109;BME280;10712;52.944;9.098;2023-11-19T06:49:14;100296.31;;;19.33;81.62
21109;BME280;10712;52.944;9.098;2023-11-19T06:51:43;100299.06;;;19.41;80.97
21109;BME280;10712;52.944;9.098;2023-11-19T06:54:09;100313.03;;;19.36;81.21
21109;BME280;10712;52.944;9.098;2023-11-19T06:56:35;100307.63;;;19.36;81.25
21109;BME280;10712;52.944;9.098;2023-11-19T06:59:02;100309.34;;;19.37;81.00
21109;BME280;10712;52.944;9.098;2023-11-19T07:01:28;100313.84;;;19.46;80.06
21109;BME280;10712;52.944;9.098;2023-11-19T07:04:00;100315.81;;;19.44;80.22
21109;BME280;10712;52.944;9.098;2023-11-19T07:06:27;100309.66;;;19.34;80.69
21109;BME280;10712;52.944;9.098;2023-11-19T07:08:53;100308.66;;;19.35;80.32
21109;BME280;10712;52.944;9.098;2023-11-19T07:11:19;100318.44;;;19.36;80.21
21109;BME280;10712;52.944;9.098;2023-11-19T07:13:44;100316.00;;;19.25;80.76
21109;BME280;10712;52.944;9.098;2023-11-19T07:16:14;100321.16;;;19.18;81.00
21109;BME280;10712;52.944;9.098;2023-11-19T07:18:40;100327.50;;;19.27;80.24
21109;BME280;10712;52.944;9.098;2023-11-19T07:21:07;100325.22;;;19.22;80.67
21109;BME280;10712;52.944;9.098;2023-11-19T07:23:36;100325.09;;;19.24;80.24
21109;BME280;10712;52.944;9.098;2023-11-19T07:26:05;100321.72;;;19.22;80.33
21109;BME280;10712;52.944;9.098;2023-11-19T07:28:33;100322.53;;;19.22;80.30
21109;BME280;10712;52.944;9.098;2023-11-19T07:30:59;100328.50;;;19.26;80.15
21109;BME280;10712;52.944;9.098;2023-11-19T07:33:25;100330.03;;;19.28;79.95
21109;BME280;10712;52.944;9.098;2023-11-19T07:35:51;100331.75;;;19.47;79.21
21109;BME280;10712;52.944;9.098;2023-11-19T07:38:17;100327.47;;;19.45;79.02
21109;BME280;10712;52.944;9.098;2023-11-19T07:40:43;100339.22;;;19.36;79.52
21109;BME280;10712;52.944;9.098;2023-11-19T07:43:09;100342.31;;;19.41;79.13
21109;BME280;10712;52.944;9.098;2023-11-19T07:45:36;100342.50;;;19.29;79.45
21109;BME280;10712;52.944;9.098;2023-11-19T07:48:02;100341.22;;;19.34;79.70
21109;BME280;10712;52.944;9.098;2023-11-19T07:50:28;100338.91;;;19.39;79.58
21109;BME280;10712;52.944;9.098;2023-11-19T07:52:55;100338.75;;;19.40;79.46
21109;BME280;10712;52.944;9.098;2023-11-19T07:55:21;100341.75;;;19.37;79.56
21109;BME280;10712;52.944;9.098;2023-11-19T07:57:47;100339.44;;;19.42;79.42
21109;BME280;10712;52.944;9.098;2023-11-19T08:00:15;100337.91;;;19.40;79.36
21109;BME280;10712;52.944;9.098;2023-11-19T08:02:40;100349.81;;;19.29;79.74
21109;BME280;10712;52.944;9.098;2023-11-19T08:05:07;100363.97;;;19.31;79.99
21109;BME280;10712;52.944;9.098;2023-11-19T08:07:32;100363.34;;;19.37;79.66
21109;BME280;10712;52.944;9.098;2023-11-19T08:09:58;100359.13;;;19.35;79.61
21109;BME280;10712;52.944;9.098;2023-11-19T08:12:25;100359.44;;;19.32;79.63
21109;BME280;10712;52.944;9.098;2023-11-19T08:14:51;100369.09;;;19.34;79.75
21109;BME280;10712;52.944;9.098;2023-11-19T08:17:17;100370.78;;;19.35;79.84
21109;BME280;10712;52.944;9.098;2023-11-19T08:19:43;100371.09;;;19.32;79.71
21109;BME280;10712;52.944;9.098;2023-11-19T08:22:08;100381.88;;;19.32;79.68
21109;BME280;10712;52.944;9.098;2023-11-19T08:24:35;100368.47;;;19.40;79.42
21109;BME280;10712;52.944;9.098;2023-11-19T08:27:01;100381.41;;;19.19;79.40
21109;BME280;10712;52.944;9.098;2023-11-19T08:29:27;100405.50;;;19.12;79.07
21109;BME280;10712;52.944;9.098;2023-11-19T08:31:53;100384.16;;;18.92;79.08
21109;BME280;10712;52.944;9.098;2023-11-19T08:34:19;100386.34;;;19.06;78.41
21109;BME280;10712;52.944;9.098;2023-11-19T08:36:45;100385.88;;;18.93;78.71
21109;BME280;10712;52.944;9.098;2023-11-19T08:39:11;100398.38;;;18.94;78.53
21109;BME280;10712;52.944;9.098;2023-11-19T08:41:36;100403.06;;;18.92;78.75
21109;BME280;10712;52.944;9.098;2023-11-19T08:44:04;100399.47;;;19.01;78.15
21109;BME280;10712;52.944;9.098;2023-11-19T08:46:29;100412.22;;;19.08;77.91
21109;BME280;10712;52.944;9.098;2023-11-19T08:48:55;100403.69;;;19.03;77.95
21109;BME280;10712;52.944;9.098;2023-11-19T08:51:24;100399.47;;;19.01;78.04
21109;BME280;10712;52.944;9.098;2023-11-19T08:53:50;100394.69;;;18.95;77.96
21109;BME280;10712;52.944;9.098;2023-11-19T08:56:16;100398.06;;;18.97;77.66
21109;BME280;10712;52.944;9.098;2023-11-19T08:58:42;100405.41;;;19.04;77.48
21109;BME280;10712;52.944;9.098;2023-11-19T09:01:08;100401.88;;;18.76;77.96
21109;BME280;10712;52.944;9.098;2023-11-19T09:03:35;100407.16;;;18.68;78.31
21109;BME280;10712;52.944;9.098;2023-11-19T09:06:02;100407.16;;;18.68;77.97
21109;BME280;10712;52.944;9.098;2023-11-19T09:08:28;100407.88;;;18.70;78.09
21109;BME280;10712;52.944;9.098;2023-11-19T09:10:54;100420.63;;;18.78;77.66
21109;BME280;10712;52.944;9.098;2023-11-19T09:13:20;100421.47;;;18.78;77.86
21109;BME280;10712;52.944;9.098;2023-11-19T09:15:45;100414.56;;;18.94;77.56
21109;BME280;10712;52.944;9.098;2023-11-19T09:18:11;100416.28;;;18.95;77.65
21109;BME280;10712;52.944;9.098;2023-11-19T09:20:37;100418.56;;;18.89;77.58
21109;BME280;10712;52.944;9.098;2023-11-19T09:23:05;100416.84;;;18.88;77.78
21109;BME280;10712;52.944;9.098;2023-11-19T09:25:32;100422.72;;;19.02;77.61
21109;BME280;10712;52.944;9.098;2023-11-19T09:27:57;100423.34;;;18.96;77.58
21109;BME280;10712;52.944;9.098;2023-11-19T09:30:23;100421.44;;;19.06;77.62
21109;BME280;10712;52.944;9.098;2023-11-19T09:32:49;100419.22;;;19.19;77.47
21109;BME280;10712;52.944;9.098;2023-11-19T09:35:15;100416.38;;;19.20;77.74
21109;BME280;10712;52.944;9.098;2023-11-19T09:37:43;100419.69;;;19.32;77.82
21109;BME280;10712;52.944;9.098;2023-11-19T09:40:09;100421.50;;;19.41;77.72
21109;BME280;10712;52.944;9.098;2023-11-19T09:42:43;100415.38;;;19.39;77.65
21109;BME280;10712;52.944;9.098;2023-11-19T09:45:17;100415.09;;;19.42;78.01
21109;BME280;10712;52.944;9.098;2023-11-19T09:47:46;100424.31;;;19.49;77.42
21109;BME280;10712;52.944;9.098;2023-11-19T09:50:19;100420.50;;;19.42;77.41
21109;BME280;10712;52.944;9.098;2023-11-19T09:52:46;100414.19;;;19.51;77.16
21109;BME280;10712;52.944;9.098;2023-11-19T09:55:12;100422.16;;;19.43;77.50
21109;BME280;10712;52.944;9.098;2023-11-19T09:57:40;100433.91;;;19.34;77.75
21109;BME280;10712;52.944;9.098;2023-11-19T10:00:12;100436.13;;;19.48;77.29
21109;BME280;10712;52.944;9.098;2023-11-19T10:02:41;100431.31;;;19.42;77.58
21109;BME280;10712;52.944;9.098;2023-11-19T10:05:07;100430.00;;;19.46;77.66
21109;BME280;10712;52.944;9.098;2023-11-19T10:07:34;100422.59;;;19.48;77.53
21109;BME280;10712;52.944;9.098;2023-11-19T10:10:04;100430.00;;;19.46;77.55
21109;BME280;10712;52.944;9.098;2023-11-19T10:12:31;100431.38;;;19.50;77.43
21109;BME280;10712;52.944;9.098;2023-11-19T10:14:58;100435.16;;;19.57;77.16
21109;BME280;10712;52.944;9.098;2023-11-19T10:17:42;100419.56;;;19.51;77.41
21109;BME280;10712;52.944;9.098;2023-11-19T10:20:09;100434.41;;;19.47;78.10
21109;BME280;10712;52.944;9.098;2023-11-19T10:22:38;100429.00;;;19.47;77.75
21109;BME280;10712;52.944;9.098;2023-11-19T10:25:21;100427.38;;;19.54;77.91
21109;BME280;10712;52.944;9.098;2023-11-19T10:27:48;100429.25;;;19.54;77.86
21109;BME280;10712;52.944;9.098;2023-11-19T10:30:27;100427.06;;;19.75;77.57
21109;BME280;10712;52.944;9.098;2023-11-19T10:33:14;100415.19;;;19.68;78.01
21109;BME280;10712;52.944;9.098;2023-11-19T10:35:54;100424.03;;;19.78;77.74
21109;BME280;10712;52.944;9.098;2023-11-19T10:38:20;100414.78;;;19.81;77.88
21109;BME280;10712;52.944;9.098;2023-11-19T10:40:48;100420.47;;;19.78;77.83
21109;BME280;10712;52.944;9.098;2023-11-19T10:43:15;100414.94;;;19.79;77.42
21109;BME280;10712;52.944;9.098;2023-11-19T10:45:41;100423.59;;;19.83;77.14
21109;BME280;10712;52.944;9.098;2023-11-19T10:48:07;100414.47;;;19.84;77.05
21109;BME280;10712;52.944;9.098;2023-11-19T10:50:37;100420.47;;;19.78;77.01
21109;BME280;10712;52.944;9.098;2023-11-19T10:53:08;100426.38;;;19.73;77.25
21109;BME280;10712;52.944;9.098;2023-11-19T10:55:37;100425.44;;;19.64;77.10
21109;BME280;10712;52.944;9.098;2023-11-19T10:58:08;100425.28;;;19.84;76.80
21109;BME280;10712;52.944;9.098;2023-11-19T11:00:48;100419.69;;;19.85;76.48
21109;BME280;10712;52.944;9.098;2023-11-19T11:03:21;100432.06;;;19.88;76.08
21109;BME280;10712;52.944;9.098;2023-11-19T11:05:49;100427.28;;;19.82;76.23
21109;BME280;10712;52.944;9.098;2023-11-19T11:08:16;100428.66;;;19.86;76.18
21109;BME280;10712;52.944;9.098;2023-11-19T11:10:54;100425.38;;;19.74;76.76
21109;BME280;10712;52.944;9.098;2023-11-19T11:13:23;100431.88;;;19.63;77.04
21109;BME280;10712;52.944;9.098;2023-11-19T11:15:55;100429.63;;;19.77;76.95
21109;BME280;10712;52.944;9.098;2023-11-19T11:18:23;100424.84;;;19.71;77.09
21109;BME280;10712;52.944;9.098;2023-11-19T11:20:56;100426.50;;;19.72;77.22
21109;BME280;10712;52.944;9.098;2023-11-19T11:29:37;100415.41;;;19.75;77.54
21109;BME280;10712;52.944;9.098;2023-11-19T11:38:07;100424.84;;;19.71;77.54
21109;BME280;10712;52.944;9.098;2023-11-19T11:40:34;100421.50;;;19.77;77.60
21109;BME280;10712;52.944;9.098;2023-11-19T11:43:00;100417.19;;;19.84;77.54
21109;BME280;10712;52.944;9.098;2023-11-19T11:45:39;100418.47;;;19.80;77.42
21109;BME280;10712;52.944;9.098;2023-11-19T11:48:20;100419.44;;;19.71;77.57
21109;BME280;10712;52.944;9.098;2023-11-19T11:50:54;100425.59;;;19.81;77.63
21109;BME280;10712;52.944;9.098;2023-11-19T11:53:22;100422.81;;;19.73;77.84
21109;BME280;10712;52.944;9.098;2023-11-19T11:58:19;100419.88;;;19.84;77.80
21109;BME280;10712;52.944;9.098;2023-11-19T12:00:48;100417.19;;;19.84;78.11
21109;BME280;10712;52.944;9.098;2023-11-19T12:03:14;100407.81;;;19.96;77.53
21109;BME280;10712;52.944;9.098;2023-11-19T12:05:47;100416.78;;;19.96;77.54
21109;BME280;10712;52.944;9.098;2023-11-19T12:08:15;100414.59;;;20.00;77.18
21109;BME280;10712;52.944;9.098;2023-11-19T12:10:54;100414.06;;;19.96;77.17
21109;BME280;10712;52.944;9.098;2023-11-19T12:13:24;100416.28;;;20.01;77.13
21109;BME280;10712;52.944;9.098;2023-11-19T12:18:28;100421.56;;;19.85;76.88
21109;BME280;10712;52.944;9.098;2023-11-19T12:21:01;100415.22;;;19.94;76.69
21109;BME280;10712;52.944;9.098;2023-11-19T12:23:29;100413.22;;;19.96;75.93
21109;BME280;10712;52.944;9.098;2023-11-19T12:25:56;100408.53;;;19.80;76.71
21109;BME280;10712;52.944;9.098;2023-11-19T12:28:22;100415.84;;;19.88;76.33
21109;BME280;10712;52.944;9.098;2023-11-19T12:30:49;100398.25;;;19.84;76.33
21109;BME280;10712;52.944;9.098;2023-11-19T12:33:16;100401.63;;;19.86;76.07
21109;BME280;10712;52.944;9.098;2023-11-19T12:35:45;100394.16;;;19.80;76.54
21109;BME280;10712;52.944;9.098;2023-11-19T12:38:21;100398.25;;;19.84;76.41
21109;BME280;10712;52.944;9.098;2023-11-19T12:41:08;100409.66;;;19.78;76.48
21109;BME280;10712;52.944;9.098;2023-11-19T12:43:37;100406.94;;;19.70;76.54
21109;BME280;10712;52.944;9.098;2023-11-19T12:46:23;100414.41;;;19.76;76.36
21109;BME280;10712;52.944;9.098;2023-11-19T12:48:50;100423.19;;;19.78;76.55
21109;BME280;10712;52.944;9.098;2023-11-19T12:51:17;100421.75;;;19.65;76.81
21109;BME280;10712;52.944;9.098;2023-11-19T12:53:50;100411.56;;;19.59;76.91
21109;BME280;10712;52.944;9.098;2023-11-19T12:56:18;100404.84;;;19.63;76.88
21109;BME280;10712;52.944;9.098;2023-11-19T12:58:44;100400.22;;;19.56;77.36
21109;BME280;10712;52.944;9.098;2023-11-19T13:01:20;100395.66;;;19.56;77.46
21109;BME280;10712;52.944;9.098;2023-11-19T13:03:46;100387.38;;;19.58;77.63
21109;BME280;10712;52.944;9.098;2023-11-19T13:06:14;100380.75;;;19.52;77.84
21109;BME280;10712;52.944;9.098;2023-11-19T13:08:49;100383.59;;;19.51;77.60
21109;BME280;10712;52.944;9.098;2023-11-19T13:11:31;100387.16;;;19.51;77.77
21109;BME280;10712;52.944;9.098;2023-11-19T13:14:01;100387.56;;;19.56;77.92